createdAt,value
2017-09-28T00:01:10.445Z,23.80
2017-09-28T00:03:38.764Z,23.10
2017-09-28T00:06:07.410Z,22.70
2017-09-28T00:08:35.715Z,23.70
2017-09-28T00:11:04.020Z,23.23
2017-09-28T00:13:33.653Z,24.30
2017-09-28T00:16:02.032Z,25.03
2017-09-28T00:18:30.368Z,23.33
2017-09-28T00:20:58.747Z,23.67
2017-09-28T00:23:27.024Z,24.40
2017-09-28T00:25:55.313Z,24.40
2017-09-28T00:28:24.348Z,21.57
2017-09-28T00:30:53.256Z,23.97
2017-09-28T00:33:21.655Z,24.03
2017-09-28T00:35:50.102Z,22.80
2017-09-28T00:38:18.702Z,23.53
2017-09-28T00:40:47.109Z,23.80
2017-09-28T00:43:15.661Z,22.57
2017-09-28T00:45:44.146Z,20.93
2017-09-28T00:48:12.543Z,22.27
2017-09-28T00:50:41.517Z,23.40
2017-09-28T00:53:09.833Z,22.83
2017-09-28T00:55:38.296Z,22.37
2017-09-28T00:58:06.736Z,23.87
2017-09-28T01:00:35.168Z,22.53
2017-09-28T01:03:03.488Z,20.50
2017-09-28T01:05:31.836Z,23.90
2017-09-28T01:08:00.224Z,23.80
2017-09-28T01:10:28.753Z,21.03
2017-09-28T01:12:57.111Z,21.87
2017-09-28T01:15:25.476Z,21.10
2017-09-28T01:17:54.401Z,20.30
2017-09-28T01:20:22.885Z,20.90
2017-09-28T01:22:51.360Z,20.77
2017-09-28T01:25:20.074Z,20.83
2017-09-28T01:27:48.488Z,22.03
2017-09-28T01:30:17.037Z,20.90
2017-09-28T01:32:45.442Z,20.30
2017-09-28T01:35:13.861Z,22.10
2017-09-28T01:37:42.736Z,22.13
2017-09-28T01:40:11.580Z,21.20
2017-09-28T01:42:40.060Z,20.17
2017-09-28T01:45:08.456Z,21.27
2017-09-28T01:47:36.883Z,22.20
2017-09-28T01:50:05.400Z,20.30
2017-09-28T01:52:35.331Z,22.10
2017-09-28T01:55:03.745Z,22.30
2017-09-28T01:57:32.770Z,21.57
2017-09-28T02:00:01.164Z,21.50
2017-09-28T02:02:29.714Z,23.47
2017-09-28T02:04:58.225Z,22.80
2017-09-28T02:07:26.740Z,19.83
2017-09-28T02:09:56.033Z,20.87
2017-09-28T02:12:24.483Z,20.70
2017-09-28T02:14:53.381Z,20.67
2017-09-28T02:17:21.724Z,22.60
2017-09-28T02:19:50.108Z,22.87
2017-09-28T02:22:18.393Z,21.40
2017-09-28T02:24:46.839Z,23.03
2017-09-28T02:27:15.236Z,21.90
2017-09-28T02:29:43.649Z,20.63
2017-09-28T02:32:12.218Z,21.17
2017-09-28T02:34:40.845Z,22.33
2017-09-28T02:37:09.173Z,22.10
2017-09-28T02:39:37.520Z,22.70
2017-09-28T02:42:05.820Z,21.43
2017-09-28T02:44:34.122Z,22.60
2017-09-28T02:47:02.427Z,23.23
2017-09-28T02:49:31.103Z,22.60
2017-09-28T02:51:59.438Z,20.70
2017-09-28T02:54:27.736Z,20.70
2017-09-28T02:56:56.047Z,21.10
2017-09-28T02:59:24.576Z,20.57
2017-09-28T03:01:52.847Z,20.73
2017-09-28T03:04:21.163Z,21.63
2017-09-28T03:06:49.475Z,21.07
2017-09-28T03:09:17.750Z,20.27
2017-09-28T03:11:46.036Z,21.77
2017-09-28T03:14:14.329Z,21.87
2017-09-28T03:16:43.772Z,20.70
2017-09-28T03:19:12.067Z,21.33
2017-09-28T03:21:40.383Z,20.57
2017-09-28T03:24:09.419Z,20.83
2017-09-28T03:26:37.679Z,21.70
2017-09-28T03:29:05.959Z,22.10
2017-09-28T03:31:34.247Z,23.73
2017-09-28T03:34:02.523Z,21.67
2017-09-28T03:36:31.011Z,22.10
2017-09-28T03:38:59.622Z,22.37
2017-09-28T03:41:27.891Z,20.50
2017-09-28T03:43:56.239Z,22.57
2017-09-28T03:46:24.565Z,21.60
2017-09-28T03:48:54.335Z,23.47
2017-09-28T03:51:22.682Z,20.10
2017-09-28T03:53:51.715Z,21.37
2017-09-28T03:56:20.214Z,22.10
2017-09-28T03:58:48.557Z,21.23
2017-09-28T04:01:17.227Z,22.97
2017-09-28T04:03:45.610Z,22.03
2017-09-28T04:06:14.431Z,21.97
2017-09-28T04:08:43.322Z,21.13
2017-09-28T04:11:11.736Z,23.50
2017-09-28T04:13:40.221Z,19.97
2017-09-28T04:16:08.624Z,22.13
2017-09-28T04:18:37.315Z,21.10
2017-09-28T04:21:06.306Z,22.37
2017-09-28T04:23:34.877Z,21.43
2017-09-28T04:26:03.410Z,22.27
2017-09-28T04:28:31.995Z,20.87
2017-09-28T04:31:00.367Z,21.37
2017-09-28T04:33:28.823Z,22.20
2017-09-28T04:35:57.542Z,22.30
2017-09-28T04:38:26.281Z,20.90
2017-09-28T04:40:55.348Z,22.50
2017-09-28T04:43:23.683Z,20.60
2017-09-28T04:45:52.295Z,22.07
2017-09-28T04:48:20.628Z,22.97
2017-09-28T04:50:48.943Z,21.50
2017-09-28T04:53:17.512Z,20.70
2017-09-28T04:55:46.131Z,23.03
2017-09-28T04:58:14.462Z,20.53
2017-09-28T05:00:42.783Z,21.83
2017-09-28T05:03:11.111Z,20.70
2017-09-28T05:05:40.315Z,22.00
2017-09-28T05:08:08.681Z,21.57
2017-09-28T05:10:37.729Z,22.43
2017-09-28T05:13:06.047Z,21.97
2017-09-28T05:15:35.099Z,21.23
2017-09-28T05:18:03.969Z,19.67
2017-09-28T05:20:32.285Z,22.20
2017-09-28T05:23:00.752Z,22.10
2017-09-28T05:25:29.348Z,21.97
2017-09-28T05:27:57.943Z,22.40
2017-09-28T05:30:26.395Z,21.37
2017-09-28T05:32:54.707Z,20.87
2017-09-28T05:35:23.000Z,21.97
2017-09-28T05:37:52.061Z,21.83
2017-09-28T05:40:20.780Z,22.70
2017-09-28T05:42:50.187Z,22.13
2017-09-28T05:45:18.920Z,22.07
2017-09-28T05:47:47.229Z,22.43
2017-09-28T05:50:15.884Z,21.17
2017-09-28T05:52:44.257Z,23.10
2017-09-28T05:55:12.611Z,22.70
2017-09-28T05:57:41.022Z,22.80
2017-09-28T06:00:09.408Z,22.40
2017-09-28T06:02:37.876Z,21.37
2017-09-28T06:05:06.582Z,21.37
2017-09-28T06:07:34.870Z,23.43
2017-09-28T06:10:03.189Z,21.63
2017-09-28T06:12:32.210Z,23.60
2017-09-28T06:15:00.484Z,22.97
2017-09-28T06:17:29.095Z,21.20
2017-09-28T06:19:57.395Z,20.93
2017-09-28T06:22:25.668Z,20.93
2017-09-28T06:24:53.974Z,21.50
2017-09-28T06:27:22.275Z,21.87
2017-09-28T06:29:50.570Z,23.23
2017-09-28T06:32:19.247Z,21.23
2017-09-28T06:34:47.527Z,22.10
2017-09-28T06:37:15.806Z,21.80
2017-09-28T06:39:44.096Z,21.33
2017-09-28T06:42:12.508Z,20.67
2017-09-28T06:44:40.850Z,21.13
2017-09-28T06:47:09.723Z,19.27
2017-09-28T06:49:38.163Z,21.03
2017-09-28T06:52:06.481Z,22.77
2017-09-28T06:54:34.796Z,22.73
2017-09-28T06:57:03.130Z,22.60
2017-09-28T06:59:31.675Z,21.27
2017-09-28T07:02:00.930Z,22.83
2017-09-28T07:04:29.308Z,20.90
2017-09-28T07:06:57.650Z,23.87
2017-09-28T07:09:26.767Z,25.57
2017-09-28T07:11:55.983Z,22.60
2017-09-28T07:14:24.442Z,23.73
2017-09-28T07:16:52.946Z,22.63
2017-09-28T07:19:21.283Z,22.03
2017-09-28T07:21:50.496Z,22.33
2017-09-28T07:24:19.339Z,23.87
2017-09-28T07:26:47.668Z,25.37
2017-09-28T07:29:16.199Z,26.23
2017-09-28T07:31:44.571Z,23.97
2017-09-28T07:34:12.923Z,24.40
2017-09-28T07:36:41.304Z,23.70
2017-09-28T07:39:09.888Z,23.97
2017-09-28T07:41:38.351Z,26.33
2017-09-28T07:44:07.421Z,24.17
2017-09-28T07:46:35.787Z,27.67
2017-09-28T07:49:04.096Z,25.00
2017-09-28T07:51:32.888Z,24.90
2017-09-28T07:54:01.228Z,23.90
2017-09-28T07:56:29.680Z,22.97
2017-09-28T07:58:58.016Z,22.60
2017-09-28T08:01:27.140Z,24.77
2017-09-28T08:03:55.499Z,24.47
2017-09-28T08:06:24.147Z,23.90
2017-09-28T08:08:54.154Z,22.83
2017-09-28T08:11:22.467Z,22.87
2017-09-28T08:13:51.557Z,23.20
2017-09-28T08:16:20.789Z,23.23
2017-09-28T08:18:49.092Z,22.63
2017-09-28T08:21:17.771Z,21.47
2017-09-28T08:23:46.511Z,22.93
2017-09-28T08:26:15.653Z,24.33
2017-09-28T08:28:43.959Z,26.97
2017-09-28T08:31:13.106Z,23.83
2017-09-28T08:33:41.407Z,24.00
2017-09-28T08:36:09.786Z,26.50
2017-09-28T08:38:38.143Z,27.13
2017-09-28T08:41:06.619Z,30.23
2017-09-28T08:43:34.916Z,28.13
2017-09-28T08:46:03.247Z,29.63
2017-09-28T08:48:32.474Z,29.63
2017-09-28T08:51:00.768Z,26.80
2017-09-28T08:53:29.232Z,26.87
2017-09-28T08:55:57.688Z,29.70
2017-09-28T08:58:26.035Z,28.10
2017-09-28T09:00:54.370Z,25.73
2017-09-28T09:03:23.217Z,29.37
2017-09-28T09:05:51.634Z,28.90
2017-09-28T09:08:20.116Z,29.67
2017-09-28T09:10:48.440Z,27.67
2017-09-28T09:13:16.909Z,29.63
2017-09-28T09:15:45.595Z,32.93
2017-09-28T09:18:13.937Z,32.57
2017-09-28T09:20:42.230Z,35.97
2017-09-28T09:23:10.576Z,31.43
2017-09-28T09:25:39.147Z,36.70
2017-09-28T09:28:07.842Z,30.87
2017-09-28T09:30:36.938Z,34.70
2017-09-28T09:33:06.331Z,34.43
2017-09-28T09:35:36.502Z,35.53
2017-09-28T09:38:05.002Z,31.93
2017-09-28T09:40:33.508Z,37.00
2017-09-28T09:43:01.941Z,32.60
2017-09-28T09:45:30.521Z,32.43
2017-09-28T09:47:58.924Z,34.93
2017-09-28T09:50:27.584Z,29.90
2017-09-28T09:52:55.872Z,30.83
2017-09-28T09:55:24.405Z,31.37
2017-09-28T09:57:52.740Z,27.97
2017-09-28T10:00:21.342Z,27.43
2017-09-28T10:02:49.926Z,28.13
2017-09-28T10:05:18.513Z,30.27
2017-09-28T10:08:30.757Z,31.90
2017-09-28T10:11:19.043Z,28.13
2017-09-28T10:14:19.747Z,29.13
2017-09-28T10:16:48.122Z,28.77
2017-09-28T10:19:17.587Z,29.30
2017-09-28T10:21:45.964Z,32.10
2017-09-28T10:24:14.505Z,30.10
2017-09-28T10:26:43.127Z,30.70
2017-09-28T10:29:11.447Z,28.90
2017-09-28T10:31:39.988Z,26.57
2017-09-28T10:34:08.703Z,27.70
2017-09-28T10:36:37.156Z,27.97
2017-09-28T10:39:05.512Z,29.27
2017-09-28T10:41:34.075Z,26.83
2017-09-28T10:44:02.424Z,29.03
2017-09-28T10:46:31.028Z,30.93
2017-09-28T10:48:59.351Z,32.53
2017-09-28T10:51:28.087Z,29.80
2017-09-28T10:53:56.514Z,30.03
2017-09-28T10:56:24.958Z,26.60
2017-09-28T10:58:53.323Z,28.97
2017-09-28T11:01:21.769Z,29.60
2017-09-28T11:03:50.186Z,29.77
2017-09-28T11:06:18.541Z,26.97
2017-09-28T11:08:46.871Z,30.10
2017-09-28T11:11:15.212Z,32.10
2017-09-28T11:13:43.849Z,27.10
2017-09-28T11:16:12.175Z,31.13
2017-09-28T11:18:40.527Z,33.30
2017-09-28T11:21:08.855Z,30.33
2017-09-28T11:23:38.082Z,31.50
2017-09-28T11:26:06.408Z,34.97
2017-09-28T11:28:34.767Z,35.47
2017-09-28T11:31:03.087Z,36.80
2017-09-28T11:33:31.450Z,35.73
2017-09-28T11:35:59.819Z,33.37
2017-09-28T11:38:28.793Z,33.63
2017-09-28T11:40:57.143Z,32.63
2017-09-28T11:43:25.720Z,32.33
2017-09-28T11:45:54.077Z,31.43
2017-09-28T11:48:23.140Z,33.07
2017-09-28T11:50:51.630Z,29.93
2017-09-28T11:53:19.951Z,27.63
2017-09-28T11:55:48.947Z,38.30
2017-09-28T11:58:17.323Z,32.07
2017-09-28T12:00:45.682Z,32.17
2017-09-28T12:03:14.635Z,31.10
2017-09-28T12:05:42.987Z,30.27
2017-09-28T12:08:11.532Z,32.20
2017-09-28T12:10:40.083Z,33.57
2017-09-28T12:13:08.422Z,35.33
2017-09-28T12:15:37.011Z,36.40
2017-09-28T12:18:05.371Z,36.13
2017-09-28T12:20:34.633Z,33.90
2017-09-28T12:23:02.948Z,36.80
2017-09-28T12:25:32.123Z,34.33
2017-09-28T12:28:01.583Z,35.83
2017-09-28T12:30:30.169Z,34.13
2017-09-28T12:32:58.612Z,36.73
2017-09-28T12:35:27.357Z,38.40
2017-09-28T12:37:55.807Z,35.53
2017-09-28T12:40:24.195Z,37.07
2017-09-28T12:42:52.799Z,38.50
2017-09-28T12:45:21.259Z,39.10
2017-09-28T12:47:50.091Z,38.70
2017-09-28T12:50:18.646Z,34.93
2017-09-28T12:52:47.102Z,35.33
2017-09-28T12:55:15.494Z,45.57
2017-09-28T12:57:44.075Z,39.57
2017-09-28T13:00:12.466Z,38.43
2017-09-28T13:02:40.784Z,36.30
2017-09-28T13:05:09.137Z,40.60
2017-09-28T13:07:37.458Z,39.37
2017-09-28T13:10:06.598Z,32.77
2017-09-28T13:12:35.801Z,38.83
2017-09-28T13:15:04.174Z,38.30
2017-09-28T13:17:32.713Z,38.80
2017-09-28T13:20:01.119Z,37.90
2017-09-28T13:22:29.535Z,36.17
2017-09-28T13:24:57.977Z,36.70
2017-09-28T13:27:26.377Z,39.50
2017-09-28T13:29:55.414Z,37.67
2017-09-28T13:32:23.760Z,42.70
2017-09-28T13:34:52.126Z,41.83
2017-09-28T13:37:21.200Z,38.13
2017-09-28T13:39:49.685Z,37.60
2017-09-28T13:42:18.166Z,36.57
2017-09-28T13:44:46.540Z,38.30
2017-09-28T13:47:15.621Z,37.57
2017-09-28T13:49:44.839Z,33.47
2017-09-28T13:52:13.211Z,42.60
2017-09-28T13:54:41.654Z,44.73
2017-09-28T13:57:10.021Z,42.60
2017-09-28T13:59:39.016Z,34.87
2017-09-28T14:02:07.394Z,37.67
2017-09-28T14:04:36.161Z,36.97
2017-09-28T14:07:04.476Z,37.47
2017-09-28T14:09:33.155Z,40.17
2017-09-28T14:12:01.625Z,36.23
2017-09-28T14:14:30.515Z,35.23
2017-09-28T14:16:58.843Z,36.33
2017-09-28T14:19:28.060Z,38.10
2017-09-28T14:21:56.566Z,42.07
2017-09-28T14:24:24.841Z,40.70
2017-09-28T14:26:53.295Z,35.90
2017-09-28T14:29:21.583Z,37.70
2017-09-28T14:31:49.880Z,37.43
2017-09-28T14:34:18.565Z,37.67
2017-09-28T14:36:46.900Z,37.00
2017-09-28T14:39:17.439Z,39.70
2017-09-28T14:41:46.370Z,40.07
2017-09-28T14:44:14.733Z,38.20
2017-09-28T14:46:43.069Z,41.00
2017-09-28T14:49:13.621Z,39.50
2017-09-28T14:51:42.029Z,40.83
2017-09-28T14:54:10.327Z,39.20
2017-09-28T14:56:38.603Z,35.37
2017-09-28T14:59:07.302Z,40.70
2017-09-28T15:01:35.714Z,39.80
2017-09-28T15:04:04.021Z,39.40
2017-09-28T15:06:32.322Z,43.13
2017-09-28T15:09:00.619Z,43.23
2017-09-28T15:11:29.067Z,41.63
2017-09-28T15:13:57.432Z,44.07
2017-09-28T15:16:25.803Z,43.10
2017-09-28T15:18:54.307Z,44.13
2017-09-28T15:21:22.970Z,41.93
2017-09-28T15:23:51.750Z,43.93
2017-09-28T15:26:20.160Z,41.77
2017-09-28T15:28:48.460Z,40.47
2017-09-28T15:31:17.123Z,40.00
2017-09-28T15:33:45.585Z,40.07
2017-09-28T15:36:14.293Z,40.17
2017-09-28T15:38:42.778Z,38.53
2017-09-28T15:41:11.255Z,43.00
2017-09-28T15:43:40.146Z,38.37
2017-09-28T15:46:08.936Z,42.17
2017-09-28T15:48:37.724Z,41.97
2017-09-28T15:51:06.514Z,39.50
2017-09-28T15:53:35.717Z,42.70
2017-09-28T15:56:04.604Z,43.73
2017-09-28T15:58:33.905Z,43.53
2017-09-28T16:01:07.100Z,41.10
2017-09-28T16:03:35.987Z,41.87
2017-09-28T16:06:04.674Z,42.07
2017-09-28T16:08:34.798Z,38.30
2017-09-28T16:11:04.096Z,43.30
2017-09-28T16:13:32.475Z,37.77
2017-09-28T16:16:00.839Z,44.40
2017-09-28T16:18:29.324Z,46.83
2017-09-28T16:20:57.998Z,41.23
2017-09-28T16:23:26.482Z,41.33
2017-09-28T16:25:54.850Z,40.87
2017-09-28T16:28:23.618Z,47.37
2017-09-28T16:30:51.922Z,42.20
2017-09-28T16:33:20.839Z,45.63
2017-09-28T16:35:49.315Z,43.10
2017-09-28T16:38:17.640Z,42.13
2017-09-28T16:40:45.980Z,49.33
2017-09-28T16:43:14.291Z,39.53
2017-09-28T16:45:43.443Z,44.33
2017-09-28T16:48:11.787Z,44.33
2017-09-28T16:50:40.865Z,45.10
2017-09-28T16:53:09.308Z,40.07
2017-09-28T16:55:37.651Z,43.53
2017-09-28T16:58:06.620Z,44.97
2017-09-28T17:00:35.005Z,42.37
2017-09-28T17:03:04.271Z,44.27
2017-09-28T17:05:32.708Z,44.30
2017-09-28T17:08:01.093Z,42.90
2017-09-28T17:10:32.088Z,42.50
2017-09-28T17:13:00.690Z,43.30
2017-09-28T17:15:29.079Z,49.40
2017-09-28T17:17:57.675Z,42.40
2017-09-28T17:20:26.529Z,43.60
2017-09-28T17:22:54.978Z,43.87
2017-09-28T17:25:23.505Z,42.60
2017-09-28T17:27:51.865Z,45.83
2017-09-28T17:30:21.390Z,44.03
2017-09-28T17:32:50.647Z,41.73
2017-09-28T17:35:18.981Z,42.50
2017-09-28T17:37:47.992Z,41.97
2017-09-28T17:40:16.312Z,44.53
2017-09-28T17:42:44.643Z,40.93
2017-09-28T17:45:13.067Z,43.57
2017-09-28T17:47:41.603Z,43.73
2017-09-28T17:50:10.228Z,42.63
2017-09-28T17:52:38.916Z,44.83
2017-09-28T17:55:08.008Z,42.73
2017-09-28T17:57:36.498Z,42.80
2017-09-28T18:00:05.180Z,39.53
2017-09-28T18:02:33.519Z,43.13
2017-09-28T18:05:01.842Z,43.53
2017-09-28T18:07:30.195Z,43.73
2017-09-28T18:09:58.655Z,43.53
2017-09-28T18:12:34.034Z,43.70
2017-09-28T18:15:03.231Z,41.93
2017-09-28T18:17:32.231Z,44.10
2017-09-28T18:20:00.809Z,44.03
2017-09-28T18:22:29.492Z,46.03
2017-09-28T18:24:57.947Z,45.73
2017-09-28T18:27:26.844Z,48.10
2017-09-28T18:29:55.357Z,46.67
2017-09-28T18:32:23.883Z,48.30
2017-09-28T18:34:52.915Z,46.63
2017-09-28T18:37:21.220Z,44.90
2017-09-28T18:39:49.513Z,46.77
2017-09-28T18:42:17.934Z,44.83
2017-09-28T18:44:46.639Z,44.17
2017-09-28T18:47:14.955Z,42.97
2017-09-28T18:49:43.571Z,44.77
2017-09-28T18:52:11.875Z,43.97
2017-09-28T18:54:40.180Z,43.10
2017-09-28T18:57:08.651Z,44.13
2017-09-28T18:59:36.962Z,45.20
2017-09-28T19:02:05.361Z,43.20
2017-09-28T19:04:33.863Z,43.40
2017-09-28T19:07:02.224Z,48.63
2017-09-28T19:09:31.645Z,43.87
2017-09-28T19:12:00.947Z,45.97
2017-09-28T19:14:29.264Z,45.47
2017-09-28T19:16:57.735Z,41.70
2017-09-28T19:19:26.092Z,41.67
2017-09-28T19:21:54.453Z,45.70
2017-09-28T19:24:23.177Z,47.37
2017-09-28T19:26:51.474Z,47.20
2017-09-28T19:29:19.833Z,48.17
2017-09-28T19:31:48.216Z,44.57
2017-09-28T19:34:16.601Z,46.90
2017-09-28T19:36:45.475Z,47.47
2017-09-28T19:39:13.750Z,46.63
2017-09-28T19:41:42.054Z,47.43
2017-09-28T19:44:10.428Z,43.77
2017-09-28T19:46:38.735Z,50.90
2017-09-28T19:49:07.083Z,46.20
2017-09-28T19:51:35.723Z,44.13
2017-09-28T19:54:04.133Z,47.37
2017-09-28T19:56:33.267Z,45.67
2017-09-28T19:59:01.920Z,43.20
2017-09-28T20:01:30.420Z,46.60
2017-09-28T20:03:58.881Z,45.03
2017-09-28T20:06:27.371Z,47.33
2017-09-28T20:08:55.827Z,45.27
2017-09-28T20:11:24.543Z,44.67
2017-09-28T20:13:53.015Z,45.50
2017-09-28T20:16:21.507Z,50.67
2017-09-28T20:18:50.311Z,46.10
2017-09-28T20:21:19.075Z,47.77
2017-09-28T20:23:47.430Z,43.03
2017-09-28T20:26:16.212Z,43.80
2017-09-28T20:28:44.606Z,44.77
2017-09-28T20:31:13.205Z,46.37
2017-09-28T20:33:42.285Z,46.30
2017-09-28T20:36:10.640Z,45.70
2017-09-28T20:38:40.255Z,44.83
2017-09-28T20:41:08.770Z,45.97
2017-09-28T20:43:37.479Z,48.23
2017-09-28T20:46:05.995Z,51.43
2017-09-28T20:48:35.209Z,47.83
2017-09-28T20:51:03.768Z,46.73
2017-09-28T20:53:33.636Z,49.20
2017-09-28T20:56:01.987Z,48.30
2017-09-28T20:58:30.394Z,49.43
2017-09-28T21:00:59.503Z,48.97
2017-09-28T21:03:28.266Z,47.97
2017-09-28T21:05:56.686Z,48.87
2017-09-28T21:08:25.147Z,49.87
2017-09-28T21:10:53.478Z,45.57
2017-09-28T21:13:21.898Z,47.83
2017-09-28T21:15:50.329Z,45.93
2017-09-28T21:18:18.701Z,52.77
2017-09-28T21:20:47.139Z,45.00
2017-09-28T21:23:16.256Z,49.77
2017-09-28T21:25:44.568Z,48.50
2017-09-28T21:28:13.856Z,47.27
2017-09-28T21:30:42.183Z,46.57
2017-09-28T21:33:10.483Z,49.87
2017-09-28T21:35:38.816Z,46.13
2017-09-28T21:38:07.219Z,47.07
2017-09-28T21:40:35.563Z,48.20
2017-09-28T21:43:03.879Z,45.87
2017-09-28T21:45:32.365Z,44.83
2017-09-28T21:48:01.310Z,47.80
2017-09-28T21:50:30.591Z,44.83
2017-09-28T21:52:58.991Z,43.33
2017-09-28T21:55:27.704Z,48.33
2017-09-28T21:57:56.159Z,47.93
2017-09-28T22:00:24.515Z,46.77
2017-09-28T22:02:53.667Z,45.23
2017-09-28T22:05:22.830Z,43.10
2017-09-28T22:07:51.353Z,44.97
2017-09-28T22:10:19.846Z,40.70
2017-09-28T22:12:48.304Z,42.90
2017-09-28T22:15:16.637Z,45.17
2017-09-28T22:17:45.697Z,45.53
2017-09-28T22:20:14.536Z,45.47
2017-09-28T22:22:43.048Z,42.20
2017-09-28T22:25:11.351Z,44.70
2017-09-28T22:27:39.675Z,43.83
2017-09-28T22:30:08.974Z,44.67
2017-09-28T22:32:38.028Z,46.93
2017-09-28T22:35:06.432Z,41.47
2017-09-28T22:37:36.241Z,47.73
2017-09-28T22:40:05.109Z,40.90
2017-09-28T22:42:33.731Z,42.70
2017-09-28T22:45:02.306Z,44.63
2017-09-28T22:47:30.998Z,44.37
2017-09-28T22:49:59.471Z,41.63
2017-09-28T22:52:27.852Z,41.50
2017-09-28T22:54:56.183Z,40.93
2017-09-28T22:57:25.156Z,40.73
2017-09-28T22:59:54.332Z,39.73
2017-09-28T23:02:22.950Z,38.30
2017-09-28T23:04:51.362Z,41.30
2017-09-28T23:07:22.231Z,39.53
2017-09-28T23:09:50.606Z,40.17
2017-09-28T23:12:18.923Z,38.23
2017-09-28T23:14:47.336Z,38.47
2017-09-28T23:17:15.631Z,36.63
2017-09-28T23:19:44.163Z,37.60
2017-09-28T23:22:13.099Z,38.33
2017-09-28T23:24:41.568Z,38.60
2017-09-28T23:27:10.019Z,38.23
2017-09-28T23:29:38.335Z,35.67
2017-09-28T23:32:06.775Z,34.90
2017-09-28T23:34:35.095Z,39.60
2017-09-28T23:37:03.536Z,33.50
2017-09-28T23:39:32.369Z,37.73
2017-09-28T23:42:01.345Z,36.13
2017-09-28T23:44:29.863Z,31.70
2017-09-28T23:46:58.238Z,32.80
2017-09-28T23:49:27.286Z,33.73
2017-09-28T23:51:56.203Z,34.33
2017-09-28T23:54:24.738Z,33.17
2017-09-28T23:56:53.047Z,33.20
2017-09-28T23:59:22.119Z,34.17
